NO-0045 weather

Kalnes Sykehus Heliport
Østfold, Norway

Public forecast

Using degrees Celsius for public forecast. Weather courtesy of forecast.io.

METAR (pilot weather report)

Closest report is Moss Airport, Rygge, 8.1 nm (15.1 km) WNW. Retrieved 2019/05/26 10:20 UTC (10 minutes ago):

ENRY 261020Z 34014KT 300V020 9999 BKN038 12/02 Q1000

TAF (pilot weather forecast)

Closest forecast is Moss Airport, Rygge, 8.1 nm (15.1 km) WNW. Retrieved 2019/05/26 06:00 UTC (4 hours ago):

TAF TAF ENRY 260500Z 2606/2706 33012KT 9999 FEW030 SCT070 TEMPO 2608/2611 34015G28KT BECMG 2615/2617 22010KT BECMG 2620/2622 16008KT